Time;durP1;ratioP1;P1;durP2;ratioP2;P2;SDS_P1;SDS_P2;PMS_P1;PMS_P2;Temp;Humidity;BMP_temperature;BMP_pressure;BME280_temperature;BME280_humidity;BME280_pressure;Samples;Min_cycle;Max_cycle;Signal;HPM_P1;HPM_P2
2023/09/19 00:00:07;;;;;;;;;;;;;;;11.89;100.00;98668.94;7397415;19;20467;-55
2023/09/19 00:03:16;;;;;;;0.20;0.20;;;;;;;11.53;100.00;98674.88;7392788;19;19922;-55
2023/09/19 00:05:46;;;;;;;0.10;0.10;;;;;;;13.15;100.00;98659.53;7393614;19;20018;-55
2023/09/19 00:08:24;;;;;;;0.55;0.30;;;;;;;13.51;100.00;98653.31;7397152;19;20014;-55
2023/09/19 00:10:54;;;;;;;0.10;0.10;;;;;;;15.65;100.00;98649.16;7393233;19;20002;-55
2023/09/19 00:13:20;;;;;;;2.25;0.85;;;;;;;15.18;100.00;98630.09;7393763;19;20420;-56
2023/09/19 00:15:48;;;;;;;0.20;0.10;;;;;;;14.72;100.00;98627.06;7392932;19;20025;-55
2023/09/19 00:18:28;;;;;;;0.20;0.20;;;;;;;17.26;100.00;98621.75;7395744;19;20039;-55
2023/09/19 00:21:05;;;;;;;0.10;0.10;;;;;;;16.74;100.00;98626.94;7390693;19;20014;-55
2023/09/19 00:23:45;;;;;;;0.10;0.00;;;;;;;17.63;100.00;98626.16;7393826;19;20022;-55
2023/09/19 00:26:15;;;;;;;0.10;0.10;;;;;;;15.45;100.00;98618.94;7389853;19;20011;-55
2023/09/19 00:28:45;;;;;;;1.23;0.70;;;;;;;14.48;100.00;98616.75;7389682;19;20006;-56
2023/09/19 00:31:43;;;;;;;;;;;;;;;;;;;;;
2023/09/19 00:34:17;;;;;;;1.45;0.25;;;;;;;12.53;100.00;98611.75;7393927;19;20455;-52
2023/09/19 00:36:45;;;;;;;0.10;0.10;;;;;;;12.15;100.00;98618.34;7390954;19;20018;-51
2023/09/19 00:39:11;;;;;;;7.22;0.43;;;;;;;14.11;100.00;98614.69;7393619;19;20015;-51
2023/09/19 00:41:38;;;;;;;2.38;0.68;;;;;;;15.08;100.00;98615.00;7391941;19;20015;-51
2023/09/19 00:44:05;;;;;;;0.30;0.30;;;;;;;17.40;100.00;98620.38;7394458;19;20018;-51
2023/09/19 00:46:32;;;;;;;0.30;0.30;;;;;;;16.62;100.00;98632.81;7391644;19;20018;-51
2023/09/19 00:48:59;;;;;;;0.40;0.40;;;;;;;24.52;94.73;98617.66;7397319;19;20015;-51
2023/09/19 00:51:27;;;;;;;0.10;0.10;;;;;;;27.96;73.91;98616.84;7396889;19;20463;-51
2023/09/19 00:53:54;;;;;;;0.90;0.68;;;;;;;31.22;58.08;98602.47;7395285;19;20027;-51
2023/09/19 00:56:20;;;;;;;3.03;0.45;;;;;;;31.93;52.67;98609.22;7397632;19;20034;-52
2023/09/19 00:58:47;;;;;;;0.10;0.10;;;;;;;32.29;49.48;98610.06;7399470;19;20022;-52
2023/09/19 01:01:14;;;;;;;0.20;0.15;;;;;;;32.52;47.63;98587.25;7399067;19;20022;-52
2023/09/19 01:03:41;;;;;;;0.10;0.10;;;;;;;31.73;47.06;98600.47;7403255;19;20340;-52
2023/09/19 01:06:12;;;;;;;0.73;0.73;;;;;;;32.25;46.32;98593.31;7400186;19;20014;-52
2023/09/19 01:08:39;;;;;;;0.20;0.20;;;;;;;32.14;44.98;98602.94;7399855;19;20099;-52
2023/09/19 01:11:11;;;;;;;0.10;0.10;;;;;;;26.54;50.57;98604.53;7400939;19;20025;-52
2023/09/19 01:13:54;;;;;;;0.10;0.10;;;;;;;32.46;45.40;98595.63;7398711;19;20355;-51
2023/09/19 01:16:39;;;;;;;0.32;0.32;;;;;;;32.73;43.34;98592.41;7398831;19;20014;-51
2023/09/19 01:19:42;;;;;;;6.03;0.20;;;;;;;32.85;42.45;98578.44;7399670;19;20035;-51
2023/09/19 01:22:56;;;;;;;0.32;0.32;;;;;;;33.67;40.34;98582.97;7399375;19;20006;-52
2023/09/19 01:26:05;;;;;;;0.20;0.20;;;;;;;23.01;57.02;98597.72;7396558;19;20007;-51
2023/09/19 01:28:39;;;;;;;0.30;0.20;;;;;;;28.38;56.26;98588.56;7397574;19;20014;-51
2023/09/19 01:31:10;;;;;;;0.17;0.17;;;;;;;19.97;85.27;98612.44;7399656;19;20007;-52
2023/09/19 01:34:07;;;;;;;2.15;0.73;;;;;;;15.03;100.00;98604.63;7399530;19;20467;-52
2023/09/19 01:36:36;;;;;;;2.15;0.90;;;;;;;14.02;100.00;98615.06;7398482;19;20480;-52
2023/09/19 01:39:13;;;;;;;1.15;0.32;;;;;;;14.86;100.00;98615.34;7399405;19;20048;-51
2023/09/19 01:41:39;;;;;;;0.30;0.30;;;;;;;15.19;100.00;98614.78;7397378;19;20021;-51
2023/09/19 01:44:11;;;;;;;0.10;0.10;;;;;;;16.09;100.00;98606.13;7402697;19;20010;-52
2023/09/19 01:46:41;;;;;;;0.20;0.20;;;;;;;22.76;100.00;98594.34;7396933;19;20349;-51
2023/09/19 01:49:26;;;;;;;0.10;0.10;;;;;;;17.72;100.00;98605.94;7397666;19;20014;-52
2023/09/19 01:52:13;;;;;;;0.10;0.10;;;;;;;14.11;100.00;98602.72;7398744;19;20070;-51
2023/09/19 01:54:59;;;;;;;0.10;0.10;;;;;;;13.39;100.00;98614.81;7395885;19;20358;-52
2023/09/19 01:57:50;;;;;;;0.10;0.10;;;;;;;13.13;100.00;98622.94;7397635;19;20035;-52
2023/09/19 02:00:18;;;;;;;;;;;;;;;12.12;100.00;98617.34;7397129;19;20454;-52
2023/09/19 02:02:47;;;;;;;0.20;0.10;;;;;;;23.92;98.30;98594.81;7399341;19;20331;-52
2023/09/19 02:05:23;;;;;;;2.72;0.85;;;;;;;14.06;100.00;98614.75;7398050;19;20018;-52
2023/09/19 02:07:50;;;;;;;0.10;0.10;;;;;;;14.76;100.00;98608.66;7395664;19;20010;-52
2023/09/19 02:10:17;;;;;;;0.60;0.20;;;;;;;14.10;100.00;98620.81;7398572;19;20006;-52
2023/09/19 02:12:44;;;;;;;0.10;0.10;;;;;;;28.42;77.45;98582.31;7396246;19;20011;-52
2023/09/19 02:15:15;;;;;;;4.45;0.40;;;;;;;32.41;54.04;98587.47;7396278;19;20014;-52
2023/09/19 02:17:43;;;;;;;0.10;0.10;;;;;;;36.64;41.55;98567.19;7397969;19;20038;-52
2023/09/19 02:20:14;;;;;;;0.80;0.80;;;;;;;37.90;37.18;98568.38;7397284;19;20038;-52
2023/09/19 02:22:41;;;;;;;0.57;0.13;;;;;;;39.41;33.83;98559.03;7398213;19;20015;-52
2023/09/19 02:25:08;;;;;;;0.10;0.10;;;;;;;39.90;32.25;98549.34;7396356;19;20025;-52
2023/09/19 02:27:37;;;;;;;1.65;1.05;;;;;;;22.99;62.36;98577.69;7396788;19;20016;-51
2023/09/19 02:30:06;;;;;;;8.70;0.98;;;;;;;16.59;100.00;98588.16;7395871;19;20011;-51
2023/09/19 02:32:35;;;;;;;5.18;0.35;;;;;;;15.31;100.00;98575.31;7395300;19;20049;-51
2023/09/19 02:35:02;;;;;;;1.20;0.80;;;;;;;16.16;100.00;98568.19;7395112;19;20082;-52
2023/09/19 02:37:32;;;;;;;0.30;0.30;;;;;;;13.38;100.00;98574.91;7398217;19;20014;-52
2023/09/19 02:39:58;;;;;;;1.40;0.25;;;;;;;12.87;100.00;98567.53;7394992;19;20027;-52
2023/09/19 02:42:24;;;;;;;0.20;0.20;;;;;;;12.78;100.00;98557.44;7397146;19;20351;-52
2023/09/19 02:44:51;;;;;;;2.10;0.68;;;;;;;14.34;100.00;98548.69;7396111;19;20011;-52
2023/09/19 02:47:19;;;;;;;0.50;0.47;;;;;;;14.37;100.00;98546.88;7391438;19;20043;-85
2023/09/19 02:49:45;;;;;;;0.40;0.40;;;;;;;14.45;100.00;98544.97;7393711;19;20031;-85
2023/09/19 02:52:14;;;;;;;7.13;0.47;;;;;;;15.08;100.00;98544.88;7393243;19;20368;-85
2023/09/19 02:54:44;;;;;;;0.10;0.10;;;;;;;15.16;100.00;98542.19;7392415;19;20022;-85
2023/09/19 02:57:11;;;;;;;0.73;0.30;;;;;;;15.05;100.00;98548.75;7392597;19;20018;-86
2023/09/19 02:59:37;;;;;;;0.75;0.75;;;;;;;15.11;100.00;98546.63;7393059;19;20018;-85
2023/09/19 03:02:05;;;;;;;0.73;0.15;;;;;;;15.32;nan;98543.16;7392196;19;20018;-86
2023/09/19 03:04:33;;;;;;;0.15;0.15;;;;;;;15.45;nan;98548.78;7398927;19;20090;-85
2023/09/19 03:07:00;;;;;;;1.35;0.40;;;;;;;16.02;nan;98553.47;7391290;19;20041;-85
2023/09/19 03:09:27;;;;;;;0.30;0.20;;;;;;;17.14;nan;98541.00;7392909;19;20025;-86
2023/09/19 03:11:54;;;;;;;0.10;0.10;;;;;;;17.38;nan;98537.78;7391095;19;20029;-85
2023/09/19 03:14:20;;;;;;;0.10;0.10;;;;;;;15.67;nan;98543.50;7394728;19;20025;-85
2023/09/19 03:16:47;;;;;;;0.30;0.30;;;;;;;16.64;nan;98542.31;7391473;19;20029;-85
2023/09/19 03:19:15;;;;;;;6.05;0.68;;;;;;;15.36;nan;98537.97;7390020;19;20528;-84
2023/09/19 03:21:42;;;;;;;1.65;0.82;;;;;;;16.19;nan;98525.75;7396176;19;20006;-84
2023/09/19 03:24:08;;;;;;;0.38;0.38;;;;;;;18.66;nan;98526.22;7394309;19;20007;-85
2023/09/19 03:26:34;;;;;;;2.10;0.65;;;;;;;16.63;nan;98526.75;7390369;19;20022;-85
2023/09/19 03:29:06;;;;;;;0.15;0.15;;;;;;;16.34;nan;98517.47;7390805;19;20010;-85
2023/09/19 03:31:33;;;;;;;0.90;0.40;;;;;;;15.70;nan;98516.41;7390939;19;20018;-85
2023/09/19 03:33:59;;;;;;;0.10;0.10;;;;;;;15.98;nan;98516.53;7392458;19;20022;-85
2023/09/19 03:36:27;;;;;;;0.10;0.05;;;;;;;16.59;nan;98521.47;7389676;19;20112;-87
2023/09/19 03:38:54;;;;;;;5.28;0.40;;;;;;;15.78;nan;98506.00;7390650;19;20018;-86
2023/09/19 03:41:20;;;;;;;0.75;0.40;;;;;;;16.00;nan;98494.28;7391584;19;20017;-87
2023/09/19 03:43:46;;;;;;;0.10;0.10;;;;;;;16.39;nan;98493.34;7393541;19;20011;-87
2023/09/19 03:46:14;;;;;;;1.13;0.88;;;;;;;16.48;nan;98493.59;7391717;19;20021;-86
2023/09/19 03:48:42;;;;;;;0.10;0.10;;;;;;;16.71;nan;98498.69;7395742;19;20018;-86
2023/09/19 03:51:10;;;;;;;0.98;0.35;;;;;;;17.44;nan;98490.53;7395745;19;20044;-86
2023/09/19 03:53:36;;;;;;;0.38;0.38;;;;;;;20.31;nan;98479.81;7394075;19;20099;-87
2023/09/19 03:56:02;;;;;;;1.42;0.50;;;;;;;33.04;nan;98460.88;7390673;19;20045;-86
2023/09/19 03:58:31;;;;;;;8.20;0.47;;;;;;;35.93;nan;98451.63;7390196;19;20018;-87
2023/09/19 04:00:58;;;;;;;0.75;0.47;;;;;;;36.46;nan;98442.03;7391376;19;20018;-86
2023/09/19 04:03:34;;;;;;;0.10;0.10;;;;;;;36.86;nan;98434.16;7392983;19;20011;-87
2023/09/19 04:06:02;;;;;;;0.45;0.45;;;;;;;36.36;nan;98421.50;7391078;19;20007;-88
2023/09/19 04:08:29;;;;;;;3.03;0.65;;;;;;;36.52;nan;98421.84;7391440;19;20031;-88
2023/09/19 04:10:56;;;;;;;0.10;0.10;;;;;;;36.68;nan;98410.59;7392472;19;20022;-88
2023/09/19 04:13:22;;;;;;;0.95;0.47;;;;;;;36.94;nan;98401.69;7394383;19;20014;-88
2023/09/19 04:15:48;;;;;;;0.10;0.10;;;;;;;37.10;nan;98396.91;7392157;19;20327;-88
2023/09/19 04:18:14;;;;;;;0.60;0.25;;;;;;;36.94;nan;98396.63;7391449;19;20477;-88
2023/09/19 04:20:48;;;;;;;0.10;0.10;;;;;;;36.89;nan;98383.44;7393592;19;20018;-88
2023/09/19 04:23:15;;;;;;;0.10;0.00;;;;;;;36.93;nan;98379.88;7392728;19;20031;-88
2023/09/19 04:25:41;;;;;;;0.57;0.57;;;;;;;36.71;nan;98377.25;7391221;19;20538;-88
2023/09/19 04:28:07;;;;;;;0.15;0.15;;;;;;;36.60;nan;98358.22;7389832;19;20015;-88
2023/09/19 04:30:33;;;;;;;0.85;0.55;;;;;;;36.85;nan;98357.22;7396614;19;20014;-89
2023/09/19 04:33:02;;;;;;;1.73;0.28;;;;;;;37.03;nan;98346.00;7399648;19;20021;-88
2023/09/19 04:35:31;;;;;;;0.10;0.00;;;;;;;36.76;nan;98335.28;7398954;19;20385;-88
2023/09/19 04:37:57;;;;;;;0.10;0.00;;;;;;;22.73;nan;98357.09;7396886;19;20477;-88
2023/09/19 04:40:26;;;;;;;0.10;0.00;;;;;;;18.13;nan;98345.78;7399128;19;20014;-88
2023/09/19 04:42:56;;;;;;;0.13;0.13;;;;;;;17.06;nan;98354.56;7399470;19;20095;-88
2023/09/19 04:45:23;;;;;;;0.40;0.40;;;;;;;16.02;nan;98334.41;7399444;19;20026;-89
2023/09/19 04:47:49;;;;;;;0.20;0.20;;;;;;;16.14;nan;98330.00;7399417;19;20460;-88
2023/09/19 04:50:16;;;;;;;0.17;0.10;;;;;;;15.21;nan;98331.00;7399805;19;20377;-88
2023/09/19 04:52:44;;;;;;;0.10;0.10;;;;;;;16.73;nan;98327.41;7399717;19;20298;-88
2023/09/19 04:55:19;;;;;;;5.18;0.40;;;;;;;16.62;nan;98318.00;7395758;19;20457;-88
2023/09/19 04:57:47;;;;;;;0.40;0.40;;;;;;;14.97;nan;98312.41;7395325;19;20078;-89
2023/09/19 05:00:16;;;;;;;0.20;0.10;;;;;;;15.33;nan;98311.88;7398807;19;20365;-89
2023/09/19 05:02:43;;;;;;;0.55;0.55;;;;;;;16.74;nan;98289.56;7398201;19;20006;-88
2023/09/19 05:05:16;;;;;;;3.30;0.60;;;;;;;17.53;nan;98292.25;7396959;19;20018;-88
2023/09/19 05:07:43;;;;;;;2.28;0.28;;;;;;;17.73;nan;98280.06;7395486;19;20043;-89
2023/09/19 05:10:11;;;;;;;1.38;0.85;;;;;;;16.79;nan;98260.50;7397706;19;20014;-87
2023/09/19 05:12:37;;;;;;;0.30;0.20;;;;;;;16.64;nan;98280.88;7398718;19;20480;-88
2023/09/19 05:15:07;;;;;;;0.20;0.10;;;;;;;16.56;nan;98257.63;7394817;19;20014;-88
2023/09/19 05:17:35;;;;;;;0.70;0.67;;;;;;;16.92;nan;98257.56;7396563;19;20479;-87
2023/09/19 05:20:15;;;;;;;2.30;0.22;;;;;;;18.58;nan;98251.97;7399554;19;20021;-87
2023/09/19 05:22:46;;;;;;;0.20;0.20;;;;;;;18.04;nan;98240.03;7398469;19;20014;-87
2023/09/19 05:25:18;;;;;;;0.45;0.10;;;;;;;16.48;nan;98240.69;7395706;19;20049;-88
2023/09/19 05:27:44;;;;;;;1.58;0.40;;;;;;;16.94;nan;98240.88;7395265;19;20018;-89
2023/09/19 05:30:12;;;;;;;0.77;0.45;;;;;;;17.04;nan;98231.38;7398050;19;20537;-89
2023/09/19 05:32:40;;;;;;;0.10;0.00;;;;;;;17.35;nan;98226.50;7397555;19;20010;-86
2023/09/19 05:35:09;;;;;;;3.47;1.10;;;;;;;17.79;nan;98222.25;7394816;19;20006;-88
2023/09/19 05:37:36;;;;;;;0.85;0.55;;;;;;;18.17;nan;98206.00;7395195;19;20025;-88
2023/09/19 05:40:07;;;;;;;1.23;0.30;;;;;;;15.66;nan;98202.38;7396858;19;20019;-88
2023/09/19 05:42:33;;;;;;;0.65;0.52;;;;;;;17.22;nan;98192.94;7395732;19;20043;-88
2023/09/19 05:44:59;;;;;;;0.40;0.40;;;;;;;17.30;nan;98193.69;7397248;19;20367;-87
2023/09/19 05:47:25;;;;;;;3.03;0.35;;;;;;;33.11;nan;98171.91;7397685;19;20014;-87
2023/09/19 05:49:52;;;;;;;0.20;0.00;;;;;;;35.32;nan;98171.41;7398881;19;20489;-86
2023/09/19 05:52:19;;;;;;;2.20;0.55;;;;;;;20.93;nan;98181.56;7395744;19;20022;-86
2023/09/19 05:54:45;;;;;;;0.38;0.17;;;;;;;19.29;nan;98168.63;7392874;19;20018;-86
2023/09/19 05:57:12;;;;;;;2.15;0.30;;;;;;;17.57;nan;98155.44;7393883;19;20022;-87
2023/09/19 05:59:39;;;;;;;0.25;0.25;;;;;;;17.32;nan;98151.69;7395978;19;20029;-87
2023/09/19 06:02:06;;;;;;;1.65;0.85;;;;;;;17.26;nan;98146.22;7395845;19;20014;-87
2023/09/19 06:04:32;;;;;;;0.20;0.20;;;;;;;18.16;nan;98142.53;7399762;19;20018;-86
2023/09/19 06:06:58;;;;;;;0.40;0.10;;;;;;;18.74;nan;98146.22;7395174;19;20018;-87
2023/09/19 06:09:25;;;;;;;0.95;0.38;;;;;;;17.60;nan;98140.25;7398587;19;20696;-88
2023/09/19 06:11:51;;;;;;;0.10;0.10;;;;;;;18.14;nan;98122.63;7396670;19;20019;-87
2023/09/19 06:14:18;;;;;;;1.27;0.40;;;;;;;32.70;nan;98111.44;7399312;19;20044;-89
2023/09/19 06:16:45;;;;;;;0.35;0.35;;;;;;;38.09;nan;98098.31;7398170;19;20014;-88
2023/09/19 06:19:11;;;;;;;0.50;0.32;;;;;;;39.15;nan;98089.75;7397571;19;20094;-87
2023/09/19 06:21:38;;;;;;;0.52;0.35;;;;;;;39.64;nan;98097.25;7399063;19;20018;-88
2023/09/19 06:24:05;;;;;;;3.20;0.40;;;;;;;40.13;nan;98085.72;7401904;19;20035;-89
2023/09/19 06:26:32;;;;;;;0.10;0.00;;;;;;;40.26;nan;98081.38;7399386;19;20014;-87
2023/09/19 06:28:59;;;;;;;0.35;0.35;;;;;;;40.68;nan;98070.41;7397911;19;20018;-87
2023/09/19 06:31:28;;;;;;;0.28;0.28;;;;;;;40.95;nan;98071.13;7397789;19;20023;-88
2023/09/19 06:33:55;;;;;;;0.10;0.10;;;;;;;40.94;nan;98072.59;7398318;19;20039;-90
2023/09/19 06:36:22;;;;;;;0.10;0.10;;;;;;;41.04;nan;98055.03;7396364;19;20015;-88
2023/09/19 06:38:51;;;;;;;0.10;0.10;;;;;;;40.98;nan;98052.13;7395015;19;20017;-89
2023/09/19 06:41:18;;;;;;;0.10;0.00;;;;;;;41.00;nan;98060.88;7397798;19;20026;-89
2023/09/19 06:43:44;;;;;;;0.10;0.00;;;;;;;40.87;nan;98059.44;7396917;19;20010;-89
2023/09/19 06:46:12;;;;;;;0.10;0.10;;;;;;;41.02;nan;98051.41;7398089;19;20019;-89
2023/09/19 06:48:38;;;;;;;1.95;0.10;;;;;;;41.12;nan;98049.16;7399419;19;20473;-90
2023/09/19 06:51:05;;;;;;;0.63;0.40;;;;;;;41.10;nan;98054.28;7395849;19;20018;-89
2023/09/19 06:53:32;;;;;;;0.85;0.22;;;;;;;41.10;nan;98040.41;7391351;19;20073;-88
2023/09/19 06:55:58;;;;;;;0.28;0.28;;;;;;;41.16;nan;98031.63;7396732;19;20015;-90
2023/09/19 06:58:24;;;;;;;0.15;0.15;;;;;;;41.27;nan;98030.13;7396901;19;20018;-87
2023/09/19 07:00:51;;;;;;;0.57;0.00;;;;;;;41.63;nan;98029.19;7398951;19;20419;-90
2023/09/19 07:03:20;;;;;;;2.10;0.10;;;;;;;41.76;nan;98018.22;7397003;19;20072;-90
2023/09/19 07:05:47;;;;;;;1.30;0.20;;;;;;;41.73;nan;98013.84;7394668;19;20010;-89
2023/09/19 07:08:14;;;;;;;2.65;0.30;;;;;;;41.44;nan;98013.97;7395671;19;20043;-89
2023/09/19 07:10:42;;;;;;;0.60;0.10;;;;;;;41.30;nan;98002.34;7395171;19;20015;-90
2023/09/19 07:13:11;;;;;;;0.20;0.10;;;;;;;41.80;nan;98018.19;7394133;19;20082;-90
2023/09/19 07:15:41;;;;;;;0.10;0.10;;;;;;;41.86;nan;98010.09;7394071;19;20081;-89
2023/09/19 07:18:10;;;;;;;0.23;0.20;;;;;;;42.07;nan;98010.69;7393052;19;20022;-90
2023/09/19 07:20:38;;;;;;;0.20;0.20;;;;;;;42.06;nan;98009.94;7395268;19;20052;-91
2023/09/19 07:23:04;;;;;;;0.28;0.28;;;;;;;41.99;nan;98005.59;7395100;19;20407;-90
2023/09/19 07:25:30;;;;;;;6.82;0.70;;;;;;;41.71;nan;97999.22;7394094;19;20006;-91
2023/09/19 07:27:59;;;;;;;5.68;0.45;;;;;;;42.09;nan;97993.09;7394713;19;20023;-90
2023/09/19 07:30:26;;;;;;;0.20;0.10;;;;;;;31.32;nan;98007.31;7394718;19;20006;-90
2023/09/19 07:32:52;;;;;;;0.85;0.30;;;;;;;22.16;nan;98023.81;7395851;19;20049;-89
2023/09/19 07:35:22;;;;;;;0.57;0.20;;;;;;;19.35;nan;98011.84;7395914;19;20086;-89
2023/09/19 07:37:49;;;;;;;1.30;0.50;;;;;;;17.37;nan;98018.47;7392478;19;20026;-91
2023/09/19 07:40:16;;;;;;;0.43;0.43;;;;;;;19.01;nan;98014.59;7393884;19;20106;-89
2023/09/19 07:42:44;;;;;;;0.20;0.08;;;;;;;16.95;nan;98011.81;7394336;19;20002;-88
2023/09/19 07:45:17;;;;;;;0.20;0.10;;;;;;;17.36;nan;98012.09;7394367;19;20142;-88
2023/09/19 07:47:50;;;;;;;3.58;0.73;;;;;;;16.82;nan;98014.81;7396086;19;20018;-88
2023/09/19 07:50:20;;;;;;;0.10;0.10;;;;;;;16.59;nan;98011.97;7394902;19;20034;-87
2023/09/19 07:52:50;;;;;;;1.65;0.57;;;;;;;17.42;nan;98012.66;7395322;19;20011;-87
2023/09/19 07:55:17;;;;;;;1.88;0.90;;;;;;;18.32;nan;98005.09;7396006;19;20036;-88
2023/09/19 07:57:43;;;;;;;0.40;0.20;;;;;;;19.80;nan;98006.97;7390385;19;20051;-88
2023/09/19 08:00:10;;;;;;;0.75;0.20;;;;;;;18.01;nan;97984.84;7390910;19;20010;-88
2023/09/19 08:02:41;;;;;;;0.10;0.00;;;;;;;17.48;nan;97984.28;7391571;19;20015;-87
2023/09/19 08:05:11;;;;;;;0.10;0.10;;;;;;;18.02;nan;97986.31;7392249;19;20018;-88
2023/09/19 08:07:43;;;;;;;4.75;0.43;;;;;;;17.01;nan;97967.34;7392428;19;20015;-89
2023/09/19 08:10:15;;;;;;;0.10;0.10;;;;;;;19.22;nan;97983.91;7395457;19;20351;-89
2023/09/19 08:12:46;;;;;;;0.10;0.00;;;;;;;19.80;nan;97967.44;7393281;19;20086;-89
2023/09/19 08:15:20;;;;;;;0.10;0.10;;;;;;;20.36;nan;97984.00;7391632;19;20040;-88
2023/09/19 08:17:46;;;;;;;;;;;;;;;20.75;nan;97973.56;7389886;19;20432;-88
2023/09/19 08:20:17;;;;;;;0.93;0.30;;;;;;;20.86;nan;97975.84;7391085;19;19918;-89
2023/09/19 08:22:54;;;;;;;;;;;;;;;22.30;nan;97985.13;7392007;19;20130;-88
2023/09/19 08:25:25;;;;;;;0.17;0.17;;;;;;;29.81;nan;97964.88;7390571;19;20420;-88
2023/09/19 08:27:51;;;;;;;0.75;0.43;;;;;;;35.62;nan;97959.88;7390076;19;20051;-88
2023/09/19 08:30:23;;;;;;;0.20;0.10;;;;;;;22.71;nan;97987.97;7392393;19;20010;-88
2023/09/19 08:32:59;;;;;;;0.10;0.10;;;;;;;20.19;nan;97974.81;7391438;19;20066;-88
2023/09/19 08:35:27;;;;;;;0.57;0.00;;;;;;;21.25;nan;97964.59;7392523;19;20025;-88
2023/09/19 08:37:55;;;;;;;2.40;0.20;;;;;;;19.50;nan;97965.72;7400579;19;20014;-88
2023/09/19 08:40:21;;;;;;;1.15;0.28;;;;;;;19.90;nan;97959.78;7395594;19;20058;-88
2023/09/19 08:42:53;;;;;;;0.03;0.03;;;;;;;20.83;nan;97954.41;7394664;19;20010;-89
2023/09/19 08:45:22;;;;;;;0.10;0.10;;;;;;;19.02;nan;97973.00;7395573;19;20469;-89
2023/09/19 08:48:07;;;;;;;0.85;0.25;;;;;;;19.43;nan;97977.84;7388188;19;20018;-88
2023/09/19 08:50:43;;;;;;;0.10;0.10;;;;;;;19.23;nan;97968.44;7392235;19;20022;-89
2023/09/19 08:53:13;;;;;;;0.10;0.00;;;;;;;39.58;nan;97950.78;7390313;19;20368;-88
2023/09/19 08:55:41;;;;;;;0.10;0.00;;;;;;;43.31;nan;97949.34;7396534;19;20023;-88
2023/09/19 08:58:13;;;;;;;1.08;0.47;;;;;;;44.05;nan;97945.28;7389475;19;20026;-89
2023/09/19 09:00:42;;;;;;;0.15;0.03;;;;;;;45.02;nan;97934.63;7390581;19;20477;-88
2023/09/19 09:03:11;;;;;;;0.32;0.20;;;;;;;44.65;nan;97930.97;7391626;19;20022;-88
2023/09/19 09:05:40;;;;;;;0.85;0.30;;;;;;;45.13;nan;97941.75;7391522;19;20030;-89
2023/09/19 09:08:07;;;;;;;0.00;0.00;;;;;;;45.13;nan;97935.88;7387314;19;20025;-88
2023/09/19 09:10:34;;;;;;;4.47;0.30;;;;;;;45.16;nan;97940.19;7389896;19;20014;-89
2023/09/19 09:13:00;;;;;;;0.10;0.10;;;;;;;28.08;nan;97962.81;7390599;19;20018;-88
2023/09/19 09:15:30;;;;;;;2.08;0.20;;;;;;;44.36;nan;97951.31;7387730;19;20370;-89
2023/09/19 09:17:58;;;;;;;0.08;0.03;;;;;;;46.17;nan;97932.69;7393689;19;20007;-87
2023/09/19 09:20:24;;;;;;;0.00;0.00;;;;;;;46.85;nan;97935.97;7400306;19;20010;-88
2023/09/19 09:22:54;;;;;;;0.10;0.10;;;;;;;47.21;nan;97940.84;7397324;19;20015;-88
2023/09/19 09:25:23;;;;;;;;;;;;;;;47.04;nan;97945.78;7397369;19;20108;-88
2023/09/19 09:28:03;;;;;;;0.10;0.00;;;;;;;47.69;nan;97950.41;7397142;19;19982;-87
2023/09/19 09:30:37;;;;;;;0.00;0.00;;;;;;;48.05;nan;97941.84;7398807;19;20081;-89
2023/09/19 09:33:15;;;;;;;0.00;0.00;;;;;;;48.27;nan;97944.81;7397843;19;20040;-88
2023/09/19 09:36:06;;;;;;;0.50;0.40;;;;;;;48.31;nan;97950.56;7397752;19;20014;-88
2023/09/19 09:38:55;;;;;;;0.10;0.10;;;;;;;38.91;nan;97956.38;7396162;19;20533;-88
2023/09/19 09:41:37;;;;;;;0.00;0.00;;;;;;;31.44;nan;97967.50;7397008;19;20018;-88
2023/09/19 09:44:17;;;;;;;0.63;0.25;;;;;;;30.90;nan;97974.91;7398211;19;20078;-88
2023/09/19 09:52:05;;;;;;;0.10;0.00;;;;;;;38.55;nan;97959.81;7396252;19;20359;-87
2023/09/19 09:54:36;;;;;;;0.00;0.00;;;;;;;26.82;nan;97971.38;7397666;19;20014;-88
2023/09/19 09:57:16;;;;;;;0.00;0.00;;;;;;;30.25;nan;97947.94;7394738;19;20058;-87
2023/09/19 09:59:46;;;;;;;0.70;0.22;;;;;;;30.43;nan;97952.25;7396322;19;20029;-87
2023/09/19 10:02:23;;;;;;;0.00;0.00;;;;;;;30.15;nan;97956.16;7397907;19;20115;-88
2023/09/19 10:04:58;;;;;;;0.00;0.00;;;;;;;30.28;nan;97952.34;7397946;19;20010;-88
2023/09/19 10:07:35;;;;;;;0.20;0.10;;;;;;;30.12;nan;97952.47;7395597;19;20378;-87
2023/09/19 10:10:22;;;;;;;0.00;0.00;;;;;;;30.16;nan;97949.00;7396773;19;20010;-86
2023/09/19 10:12:49;;;;;;;0.00;0.00;;;;;;;30.14;nan;97946.06;7397707;19;20377;-88
2023/09/19 10:15:20;;;;;;;0.00;0.00;;;;;;;40.44;nan;97938.38;7394817;19;20015;-90
2023/09/19 10:17:47;;;;;;;0.00;0.00;;;;;;;35.14;nan;97953.91;7395764;19;20373;-91
2023/09/19 10:20:34;;;;;;;0.00;0.00;;;;;;;37.33;nan;97952.94;7397651;19;20021;-88
2023/09/19 10:23:09;;;;;;;0.00;0.00;;;;;;;41.75;nan;97952.41;7394677;19;20039;-88
2023/09/19 10:25:37;;;;;;;0.00;0.00;;;;;;;41.58;nan;97945.19;7396585;19;20394;-88
2023/09/19 10:28:13;;;;;;;0.03;0.00;;;;;;;46.14;nan;97940.09;7394288;19;20023;-88
2023/09/19 10:30:50;;;;;;;0.08;0.00;;;;;;;45.44;nan;97957.22;7394563;19;20467;-88
2023/09/19 10:33:19;;;;;;;0.00;0.00;;;;;;;35.06;nan;97959.53;7396608;19;20461;-90
2023/09/19 10:35:56;;;;;;;0.30;0.00;;;;;;;42.99;nan;97939.47;7394190;19;20043;-91
2023/09/19 10:38:24;;;;;;;0.20;0.10;;;;;;;28.31;nan;97968.19;7393291;19;20040;-91
2023/09/19 10:40:56;;;;;;;0.00;0.00;;;;;;;27.55;nan;97961.56;7395656;19;20031;-93
2023/09/19 10:43:29;;;;;;;0.95;0.35;;;;;;;27.03;nan;97974.66;7397483;19;20527;-92
2023/09/19 10:46:03;;;;;;;0.00;0.00;;;;;;;25.20;nan;97984.28;7396421;19;20353;-92
2023/09/19 10:48:31;;;;;;;0.05;0.03;;;;;;;24.75;nan;97969.47;7397839;19;20074;-93
2023/09/19 10:51:00;;;;;;;0.30;0.30;;;;;;;24.47;nan;97989.72;7401202;19;20346;-91
2023/09/19 10:53:31;;;;;;;0.10;0.10;;;;;;;24.45;nan;97981.78;7399110;19;20021;-90
2023/09/19 10:55:59;;;;;;;0.00;0.00;;;;;;;26.75;nan;97978.88;7394235;19;20029;-89
2023/09/19 10:58:28;;;;;;;0.00;0.00;;;;;;;38.21;nan;97982.84;7394476;19;20006;-91
2023/09/19 11:00:57;;;;;;;0.10;0.10;;;;;;;24.31;nan;97994.41;7396277;19;20110;-92
2023/09/19 11:03:29;;;;;;;0.10;0.00;;;;;;;21.34;nan;97998.59;7398163;19;20028;-91
2023/09/19 11:06:18;;;;;;;0.00;0.00;;;;;;;21.37;nan;98005.94;7394999;19;20090;-89
2023/09/19 11:11:52;;;;;;;0.00;0.00;;;;;;;23.02;nan;98008.59;7393425;19;20111;-88
2023/09/19 11:14:25;;;;;;;0.95;0.10;;;;;;;24.22;nan;98012.31;7398103;19;20014;-89
2023/09/19 11:17:07;;;;;;;0.00;0.00;;;;;;;24.51;nan;98001.38;7392263;19;20010;-88
2023/09/19 11:20:24;;;;;;;0.00;0.00;;;;;;;24.68;nan;98015.25;7392434;19;20007;-86
2023/09/19 11:22:53;;;;;;;0.00;0.00;;;;;;;25.04;nan;98011.78;7395954;19;20025;-89
2023/09/19 11:28:28;;;;;;;0.30;0.30;;;;;;;25.03;nan;98021.72;7396317;19;20010;-92
2023/09/19 11:30:55;;;;;;;0.10;0.00;;;;;;;24.77;nan;98020.13;7398563;19;20010;-93
2023/09/19 11:33:38;;;;;;;0.10;0.00;;;;;;;24.76;nan;98021.47;7397680;19;20015;-93
2023/09/19 11:36:04;;;;;;;0.52;0.10;;;;;;;24.83;nan;98011.94;7393081;19;20429;-87
2023/09/19 11:38:47;;;;;;;0.20;0.10;;;;;;;24.65;nan;98022.91;7390279;19;20034;-96
2023/09/19 11:44:26;;;;;;;0.00;0.00;;;;;;;24.44;nan;98019.41;7397847;19;20021;-59
2023/09/19 11:46:56;;;;;;;0.10;0.00;;;;;;;24.55;nan;98032.94;7392226;19;20050;-58
2023/09/19 11:49:32;;;;;;;0.00;0.00;;;;;;;24.49;nan;98029.69;7391609;19;20006;-57
2023/09/19 11:55:22;;;;;;;0.08;0.08;;;;;;;22.60;nan;98032.69;7388704;19;20006;-58
2023/09/19 12:05:22;;;;;;;0.00;0.00;;;;;;;23.91;nan;98044.47;7403472;19;20388;-96
2023/09/19 12:07:49;;;;;;;0.00;0.00;;;;;;;23.68;nan;98038.66;7386556;19;20051;-83
2023/09/19 12:10:33;;;;;;;0.08;0.00;;;;;;;23.72;nan;98036.09;7391591;19;20010;-94
2023/09/19 12:13:00;;;;;;;4.22;0.22;;;;;;;23.46;nan;98040.03;7390307;19;20047;-90
2023/09/19 12:21:37;;;;;;;0.00;0.00;;;;;;;22.93;nan;98035.69;7395264;19;20014;-57
2023/09/19 12:24:29;;;;;;;0.00;0.00;;;;;;;23.26;nan;98041.47;7395122;19;20038;-57
2023/09/19 12:27:05;;;;;;;0.43;0.20;;;;;;;24.20;nan;98052.00;7390629;19;20010;-55
2023/09/19 12:29:44;;;;;;;0.10;0.10;;;;;;;24.23;nan;98039.41;7390013;19;20014;-55
2023/09/19 12:41:18;;;;;;;0.00;0.00;;;;;;;24.35;nan;98038.09;7394224;19;20022;-57
2023/09/19 12:43:46;;;;;;;0.00;0.00;;;;;;;24.35;nan;98046.63;7392188;19;20048;-57